Time;durP1;ratioP1;P1;durP2;ratioP2;P2;SDS_P1;SDS_P2;PMS_P1;PMS_P2;Temp;Humidity;BMP_temperature;BMP_pressure;BME280_temperature;BME280_humidity;BME280_pressure;Samples;Min_cycle;Max_cycle;Signal;HPM_P1;HPM_P2
2024/01/22 00:00:13;;;;;;;15.95;3.28;;;26.10;91.00;;;;;;4935455;29;20488;-68
2024/01/22 00:02:41;;;;;;;14.27;3.00;;;26.00;91.10;;;;;;4945176;29;20126;-68
2024/01/22 00:05:10;;;;;;;16.50;2.40;;;25.90;91.40;;;;;;4934886;28;20038;-68
2024/01/22 00:07:38;;;;;;;20.65;4.25;;;25.90;91.50;;;;;;4934714;29;20508;-68
2024/01/22 00:10:06;;;;;;;13.70;3.30;;;26.00;91.50;;;;;;4935162;29;20027;-68
2024/01/22 00:12:34;;;;;;;13.75;4.13;;;25.90;91.20;;;;;;4942741;29;20023;-68
2024/01/22 00:15:01;;;;;;;17.27;3.92;;;25.70;91.70;;;;;;4950683;28;20033;-68
2024/01/22 00:17:29;;;;;;;23.92;3.88;;;25.80;91.70;;;;;;4934612;28;20035;-68
2024/01/22 00:19:56;;;;;;;15.63;3.97;;;26.00;91.10;;;;;;4938019;29;20030;-68
2024/01/22 00:22:23;;;;;;;14.85;2.70;;;25.90;90.70;;;;;;4937246;28;20076;-68
2024/01/22 00:24:50;;;;;;;14.00;2.78;;;25.90;90.60;;;;;;4935130;29;20533;-68
2024/01/22 00:27:18;;;;;;;17.90;2.45;;;26.00;90.70;;;;;;4934800;29;20035;-68
2024/01/22 00:29:45;;;;;;;16.58;2.65;;;26.10;90.60;;;;;;4942620;29;20600;-68
2024/01/22 00:32:13;;;;;;;10.43;2.45;;;26.30;90.50;;;;;;4943418;29;20492;-68
2024/01/22 00:34:40;;;;;;;12.25;2.70;;;26.60;90.00;;;;;;4954768;28;20037;-68
2024/01/22 00:37:08;;;;;;;10.82;2.33;;;26.80;90.30;;;;;;4937032;28;20054;-68
2024/01/22 00:39:35;;;;;;;19.67;3.03;;;26.80;89.40;;;;;;4934958;29;20032;-68
2024/01/22 00:42:02;;;;;;;10.52;2.60;;;26.80;88.90;;;;;;4935054;29;20027;-68
2024/01/22 00:44:30;;;;;;;13.60;3.17;;;26.60;89.90;;;;;;4934112;29;20055;-68
2024/01/22 00:46:57;;;;;;;16.88;3.53;;;26.60;89.50;;;;;;4938441;29;20493;-68
2024/01/22 00:49:24;;;;;;;12.48;2.50;;;26.50;89.90;;;;;;4933805;29;20035;-68
2024/01/22 00:51:51;;;;;;;17.05;2.85;;;26.60;89.20;;;;;;4934433;29;20039;-68
2024/01/22 00:54:19;;;;;;;11.82;2.40;;;26.60;89.90;;;;;;4934850;29;20098;-68
2024/01/22 00:56:46;;;;;;;12.98;2.47;;;26.60;90.00;;;;;;4933986;29;20444;-69
2024/01/22 00:59:13;;;;;;;14.55;2.75;;;26.50;88.80;;;;;;4934503;29;20019;-69
2024/01/22 01:01:41;;;;;;;12.93;2.25;;;26.50;88.60;;;;;;4942285;29;20414;-69
2024/01/22 01:04:08;;;;;;;13.95;2.63;;;26.60;88.60;;;;;;4934954;29;20079;-68
2024/01/22 01:06:35;;;;;;;12.40;2.00;;;26.60;88.50;;;;;;4933668;29;20031;-69
2024/01/22 01:09:03;;;;;;;11.10;2.60;;;26.40;89.40;;;;;;4938940;28;20039;-70
2024/01/22 01:11:30;;;;;;;13.70;2.75;;;26.30;89.70;;;;;;4951406;28;20469;-68
2024/01/22 01:13:58;;;;;;;14.82;2.50;;;26.20;90.00;;;;;;4937324;28;20024;-67
2024/01/22 01:16:25;;;;;;;14.18;3.05;;;26.20;90.30;;;;;;4940146;29;20122;-67
2024/01/22 01:18:52;;;;;;;16.73;2.70;;;26.30;90.30;;;;;;4934355;29;20032;-68
2024/01/22 01:21:22;;;;;;;15.43;2.83;;;26.20;90.50;;;;;;4939492;28;20066;-66
2024/01/22 01:23:50;;;;;;;11.93;2.70;;;26.10;90.60;;;;;;4937476;28;20055;-66
2024/01/22 01:26:17;;;;;;;9.95;2.63;;;26.00;90.90;;;;;;4934178;29;20132;-68
2024/01/22 01:28:45;;;;;;;17.83;2.60;;;26.00;91.10;;;;;;4936297;29;20032;-67
2024/01/22 01:31:12;;;;;;;21.08;3.97;;;26.20;90.80;;;;;;4938144;28;20111;-68
2024/01/22 01:33:40;;;;;;;10.77;2.40;;;26.10;90.70;;;;;;4934063;29;20032;-67
2024/01/22 01:36:07;;;;;;;14.85;3.28;;;26.10;90.80;;;;;;4935766;29;20474;-68
2024/01/22 01:38:36;;;;;;;12.00;3.25;;;26.00;90.80;;;;;;4937150;28;20426;-68
2024/01/22 01:41:04;;;;;;;19.77;2.83;;;26.00;90.90;;;;;;4938978;29;20040;-68
2024/01/22 01:43:32;;;;;;;14.70;2.42;;;26.20;90.90;;;;;;4944266;29;20055;-68
2024/01/22 01:45:59;;;;;;;11.90;3.25;;;26.20;90.50;;;;;;4938241;29;20083;-68
2024/01/22 01:48:28;;;;;;;21.45;3.50;;;26.30;90.60;;;;;;4944424;29;20035;-69
2024/01/22 01:50:57;;;;;;;17.10;2.72;;;26.30;90.40;;;;;;4957823;28;20110;-70
2024/01/22 01:53:25;;;;;;;12.95;2.88;;;26.30;90.60;;;;;;4945168;29;20086;-68
2024/01/22 01:55:53;;;;;;;21.23;2.95;;;26.30;90.40;;;;;;4937259;29;20036;-69
2024/01/22 01:58:22;;;;;;;17.98;2.80;;;26.30;90.30;;;;;;4938033;29;20032;-68
2024/01/22 02:00:52;;;;;;;14.88;2.40;;;26.50;89.60;;;;;;4942006;29;20031;-68
2024/01/22 02:03:19;;;;;;;9.70;2.25;;;26.60;89.10;;;;;;4936266;29;20440;-68
2024/01/22 02:05:47;;;;;;;16.83;2.63;;;26.60;88.80;;;;;;4949307;29;20051;-69
2024/01/22 02:08:15;;;;;;;15.20;2.63;;;26.80;89.50;;;;;;4942057;28;20019;-69
2024/01/22 02:10:50;;;;;;;16.65;3.15;;;26.80;89.00;;;;;;4947385;29;20086;-69
2024/01/22 02:13:17;;;;;;;25.35;3.63;;;26.60;88.70;;;;;;4937671;29;20038;-68
2024/01/22 02:15:44;;;;;;;9.10;2.35;;;26.40;89.90;;;;;;4936867;29;20039;-68
2024/01/22 02:18:12;;;;;;;10.73;2.38;;;26.40;89.70;;;;;;4937573;29;20027;-69
2024/01/22 02:20:39;;;;;;;17.20;2.53;;;26.60;89.70;;;;;;4938466;29;20036;-68
2024/01/22 02:23:08;;;;;;;10.70;2.75;;;26.60;89.90;;;;;;4940660;28;20036;-68
2024/01/22 02:25:35;;;;;;;13.05;2.85;;;26.40;89.20;;;;;;4935647;28;20115;-68
2024/01/22 02:28:02;;;;;;;13.13;2.72;;;26.40;90.00;;;;;;4936647;28;20043;-68
2024/01/22 02:30:30;;;;;;;12.63;2.35;;;26.50;89.80;;;;;;4941034;28;20035;-67
2024/01/22 02:32:57;;;;;;;17.42;3.00;;;26.60;89.80;;;;;;4942346;28;20483;-68
2024/01/22 02:35:24;;;;;;;9.63;2.25;;;26.70;90.10;;;;;;4945819;28;20769;-67
2024/01/22 02:37:52;;;;;;;13.73;2.60;;;26.90;89.30;;;;;;4945299;28;20031;-67
2024/01/22 02:40:19;;;;;;;12.05;2.05;;;27.20;88.60;;;;;;4950774;28;20023;-67
2024/01/22 02:42:47;;;;;;;9.50;2.40;;;27.30;88.30;;;;;;4942899;28;20019;-68
2024/01/22 02:45:14;;;;;;;15.60;2.25;;;27.20;86.90;;;;;;4943726;28;20110;-68
2024/01/22 02:47:42;;;;;;;10.73;2.15;;;27.20;87.60;;;;;;4941196;28;20080;-68
2024/01/22 02:50:09;;;;;;;10.70;2.55;;;27.10;87.80;;;;;;4941342;28;20400;-68
2024/01/22 02:52:36;;;;;;;12.25;2.78;;;26.90;88.30;;;;;;4944732;29;20043;-68
2024/01/22 02:55:04;;;;;;;15.45;2.72;;;26.70;89.40;;;;;;4938505;28;20461;-68
2024/01/22 02:57:31;;;;;;;13.75;2.33;;;26.80;89.90;;;;;;4943401;29;20039;-68
2024/01/22 03:00:02;;;;;;;12.20;2.80;;;27.00;88.90;;;;;;4939998;29;20493;-67
2024/01/22 03:02:30;;;;;;;14.68;2.45;;;27.10;88.80;;;;;;4944507;28;20023;-68
2024/01/22 03:04:57;;;;;;;16.88;2.20;;;27.20;88.90;;;;;;4952430;28;20374;-68
2024/01/22 03:07:24;;;;;;;12.43;2.22;;;27.20;88.60;;;;;;4936254;29;20050;-68
2024/01/22 03:09:52;;;;;;;10.45;2.22;;;27.30;87.10;;;;;;4941779;29;20027;-68
2024/01/22 03:12:19;;;;;;;13.23;2.53;;;27.10;86.80;;;;;;4938139;29;20032;-68
2024/01/22 03:14:46;;;;;;;14.75;3.15;;;27.10;86.90;;;;;;4941176;29;20047;-69
2024/01/22 03:17:14;;;;;;;18.10;3.28;;;27.20;86.80;;;;;;4935419;29;20027;-69
2024/01/22 03:19:41;;;;;;;7.00;2.58;;;27.10;86.70;;;;;;4939434;29;20090;-68
2024/01/22 03:22:08;;;;;;;11.00;2.00;;;26.90;87.20;;;;;;4936294;29;20016;-68
2024/01/22 03:24:37;;;;;;;10.73;2.20;;;26.80;87.40;;;;;;4944536;28;20035;-68
2024/01/22 03:27:05;;;;;;;6.47;1.80;;;26.60;88.00;;;;;;4937670;28;20039;-66
2024/01/22 03:29:32;;;;;;;14.75;2.03;;;26.60;88.30;;;;;;4936849;29;20043;-68
2024/01/22 03:32:00;;;;;;;13.00;2.25;;;26.50;88.80;;;;;;4938383;28;20385;-68
2024/01/22 03:34:27;;;;;;;9.10;2.20;;;26.30;89.50;;;;;;4936290;29;20020;-67
2024/01/22 03:36:54;;;;;;;11.60;2.20;;;26.20;90.00;;;;;;4961262;28;20032;-68
2024/01/22 03:39:22;;;;;;;12.48;2.05;;;26.10;90.00;;;;;;4942290;29;20034;-67
2024/01/22 03:41:50;;;;;;;16.90;2.72;;;26.00;90.10;;;;;;4946280;29;20090;-68
2024/01/22 03:44:17;;;;;;;12.55;2.40;;;25.90;90.10;;;;;;4943565;28;20121;-69
2024/01/22 03:46:44;;;;;;;12.60;2.05;;;25.90;90.20;;;;;;4937864;29;20047;-69
2024/01/22 03:49:11;;;;;;;15.48;2.65;;;26.00;90.20;;;;;;4934783;29;20572;-70
2024/01/22 03:51:39;;;;;;;9.48;2.38;;;26.40;90.30;;;;;;4941001;29;20094;-69
2024/01/22 03:54:06;;;;;;;10.80;1.92;;;26.90;89.40;;;;;;4954215;28;20047;-69
2024/01/22 03:56:34;;;;;;;10.23;2.55;;;27.00;88.60;;;;;;4956488;28;20036;-68
2024/01/22 03:59:01;;;;;;;12.52;1.90;;;27.20;88.60;;;;;;4955671;28;20465;-68
2024/01/22 04:01:28;;;;;;;7.53;1.90;;;27.20;87.50;;;;;;4946890;28;20401;-68
2024/01/22 04:03:56;;;;;;;8.63;1.92;;;27.10;88.00;;;;;;4945819;29;20038;-68
2024/01/22 04:06:23;;;;;;;11.45;1.80;;;26.90;88.80;;;;;;4937874;28;20126;-69
2024/01/22 04:08:50;;;;;;;17.88;2.30;;;26.70;88.80;;;;;;4937891;29;20028;-67
2024/01/22 04:11:18;;;;;;;9.70;2.35;;;26.70;89.40;;;;;;4940401;28;20027;-67
2024/01/22 04:13:45;;;;;;;10.02;1.92;;;26.60;89.50;;;;;;4942838;28;20046;-67
2024/01/22 04:16:16;;;;;;;14.50;2.55;;;26.60;89.50;;;;;;4936439;28;20105;-67
2024/01/22 04:18:43;;;;;;;12.73;1.90;;;26.50;89.50;;;;;;4937936;28;20055;-67
2024/01/22 04:21:12;;;;;;;11.15;1.98;;;26.50;90.00;;;;;;4938958;28;20107;-69
2024/01/22 04:23:39;;;;;;;20.80;2.63;;;26.50;89.50;;;;;;4936082;28;20039;-69
2024/01/22 04:26:07;;;;;;;11.65;1.90;;;26.60;89.00;;;;;;4945314;28;20071;-69
2024/01/22 04:28:34;;;;;;;16.15;2.00;;;26.60;89.40;;;;;;4940648;28;20434;-68
2024/01/22 04:31:02;;;;;;;9.85;2.00;;;26.50;89.60;;;;;;4939196;28;20031;-69
2024/01/22 04:33:29;;;;;;;11.70;2.30;;;26.50;88.70;;;;;;4943156;28;20038;-68
2024/01/22 04:35:57;;;;;;;8.50;1.73;;;26.50;89.70;;;;;;4942368;28;20042;-69
2024/01/22 04:38:26;;;;;;;14.20;2.25;;;26.60;89.20;;;;;;4936692;28;20787;-68
2024/01/22 04:40:53;;;;;;;5.53;1.98;;;26.60;88.50;;;;;;4947089;28;20033;-68
2024/01/22 04:43:21;;;;;;;7.18;1.75;;;26.40;89.20;;;;;;4940413;28;20553;-68
2024/01/22 04:45:49;;;;;;;10.82;1.95;;;26.40;89.40;;;;;;4937531;28;20704;-68
2024/01/22 04:48:16;;;;;;;11.98;2.10;;;26.50;89.70;;;;;;4934764;28;20031;-68
2024/01/22 04:50:44;;;;;;;7.18;2.25;;;26.50;90.00;;;;;;4936065;29;20031;-67
2024/01/22 04:53:11;;;;;;;8.32;1.50;;;26.50;89.70;;;;;;4932985;29;20142;-69
2024/01/22 04:55:38;;;;;;;12.55;2.05;;;26.50;89.20;;;;;;4934268;29;20660;-68
2024/01/22 04:58:06;;;;;;;9.95;1.73;;;26.30;90.00;;;;;;4933788;29;20035;-68
2024/01/22 05:00:33;;;;;;;10.90;1.70;;;25.90;90.60;;;;;;4936981;29;20050;-67
2024/01/22 05:03:04;;;;;;;9.57;1.58;;;25.70;90.80;;;;;;4943371;28;20114;-68
2024/01/22 05:05:33;;;;;;;8.70;1.42;;;25.50;90.90;;;;;;4938708;28;20079;-68
2024/01/22 05:08:01;;;;;;;11.00;1.80;;;25.60;90.90;;;;;;4943334;29;20610;-68
2024/01/22 05:10:28;;;;;;;14.13;2.20;;;25.50;91.10;;;;;;4949522;28;20027;-69
2024/01/22 05:12:56;;;;;;;6.78;1.63;;;25.40;91.00;;;;;;4943196;29;20024;-67
2024/01/22 05:15:24;;;;;;;10.48;1.88;;;25.30;91.00;;;;;;4934853;28;20031;-68
2024/01/22 05:17:51;;;;;;;12.73;2.28;;;25.30;91.00;;;;;;4936696;29;20330;-67
2024/01/22 05:20:18;;;;;;;13.20;1.90;;;25.20;91.20;;;;;;4936846;28;20028;-68
2024/01/22 05:22:49;;;;;;;13.23;1.80;;;25.20;91.40;;;;;;4943820;28;20392;-65
2024/01/22 05:25:17;;;;;;;8.38;1.88;;;25.20;91.30;;;;;;4942245;28;20034;-68
2024/01/22 05:27:46;;;;;;;10.15;1.75;;;25.20;91.30;;;;;;4943057;28;20047;-68
2024/01/22 05:30:14;;;;;;;11.82;1.70;;;25.20;91.50;;;;;;4936249;28;20127;-69
2024/01/22 05:32:41;;;;;;;10.77;1.83;;;25.20;91.50;;;;;;4936667;28;20156;-69
2024/01/22 05:35:09;;;;;;;12.45;2.03;;;25.20;91.70;;;;;;4946021;28;20031;-69
2024/01/22 05:37:36;;;;;;;15.00;1.65;;;25.10;91.90;;;;;;4938761;28;20028;-69
2024/01/22 05:40:04;;;;;;;9.40;2.08;;;25.00;92.20;;;;;;4941980;29;20028;-69
2024/01/22 05:42:31;;;;;;;10.35;1.70;;;25.00;92.30;;;;;;4947189;29;20031;-69
2024/01/22 05:44:59;;;;;;;10.85;1.50;;;25.00;92.40;;;;;;4940350;29;20031;-69
2024/01/22 05:47:26;;;;;;;12.55;2.05;;;24.90;92.20;;;;;;4934897;28;20486;-68
2024/01/22 05:49:53;;;;;;;11.27;1.85;;;24.90;92.40;;;;;;4953332;28;20051;-69
2024/01/22 05:52:21;;;;;;;16.48;2.58;;;24.80;92.20;;;;;;4941163;28;20052;-70
2024/01/22 05:54:48;;;;;;;11.48;1.58;;;24.70;92.40;;;;;;4953060;28;20032;-69
2024/01/22 05:57:16;;;;;;;14.50;1.95;;;24.70;92.80;;;;;;4939773;28;20065;-69
2024/01/22 05:59:50;;;;;;;10.10;1.80;;;24.70;92.50;;;;;;4934384;28;20374;-68
2024/01/22 06:02:18;;;;;;;8.93;1.48;;;24.70;92.60;;;;;;4943040;28;20137;-69
2024/01/22 06:04:46;;;;;;;14.27;2.13;;;24.70;92.60;;;;;;4940824;28;20042;-68
2024/01/22 06:07:13;;;;;;;15.98;2.20;;;24.70;92.60;;;;;;4941946;28;20090;-68
2024/01/22 06:09:41;;;;;;;15.85;2.30;;;24.70;92.50;;;;;;4942836;29;20082;-69
2024/01/22 06:12:08;;;;;;;11.48;2.28;;;24.80;92.30;;;;;;4942511;28;20421;-69
2024/01/22 06:14:36;;;;;;;14.30;1.98;;;24.70;92.40;;;;;;4941442;28;20035;-70
2024/01/22 06:17:04;;;;;;;11.60;1.80;;;24.70;92.60;;;;;;4940266;28;20119;-69
2024/01/22 06:19:31;;;;;;;11.30;2.15;;;24.80;92.60;;;;;;4946021;28;20689;-69
2024/01/22 06:21:58;;;;;;;11.15;1.70;;;24.70;92.70;;;;;;4945240;28;20123;-68
2024/01/22 06:24:26;;;;;;;11.55;1.88;;;24.60;92.60;;;;;;4939541;29;20062;-67
2024/01/22 06:26:53;;;;;;;10.65;1.77;;;24.50;92.70;;;;;;4946621;29;20134;-69
2024/01/22 06:29:20;;;;;;;8.77;1.75;;;24.40;92.70;;;;;;4934527;28;20122;-69
2024/01/22 06:31:48;;;;;;;8.23;1.85;;;24.40;92.90;;;;;;4944380;29;20027;-68
2024/01/22 06:34:15;;;;;;;5.53;1.25;;;24.40;92.60;;;;;;4947351;29;20031;-67
2024/01/22 06:36:42;;;;;;;12.80;1.95;;;24.40;92.40;;;;;;4950348;28;20031;-69
2024/01/22 06:39:10;;;;;;;11.00;1.85;;;24.30;92.40;;;;;;4940045;29;20642;-68
2024/01/22 06:41:37;;;;;;;12.93;2.20;;;24.40;92.30;;;;;;4934463;29;20031;-69
2024/01/22 06:44:06;;;;;;;9.85;1.83;;;24.60;92.60;;;;;;4939776;29;20369;-69
2024/01/22 06:46:34;;;;;;;9.18;1.65;;;24.50;92.70;;;;;;4939851;28;20115;-69
2024/01/22 06:49:01;;;;;;;12.05;1.85;;;24.50;92.50;;;;;;4944717;28;20098;-70
2024/01/22 06:51:29;;;;;;;9.00;1.63;;;24.50;92.50;;;;;;4944412;28;20121;-68
2024/01/22 06:53:56;;;;;;;8.90;1.45;;;24.40;92.60;;;;;;4948015;28;20055;-69
2024/01/22 06:56:24;;;;;;;10.50;1.80;;;24.50;92.60;;;;;;4937421;28;20426;-68
2024/01/22 06:58:51;;;;;;;9.02;1.75;;;24.60;92.70;;;;;;4956408;28;20035;-68
2024/01/22 07:01:19;;;;;;;14.68;1.98;;;24.50;92.60;;;;;;4940442;29;20030;-68
2024/01/22 07:03:46;;;;;;;14.02;2.13;;;24.40;92.70;;;;;;4942399;28;20146;-68
2024/01/22 07:06:14;;;;;;;12.10;1.80;;;24.50;93.20;;;;;;4936999;29;21783;-69
2024/01/22 07:08:41;;;;;;;12.07;1.85;;;24.50;93.10;;;;;;4938038;29;20104;-69
2024/01/22 07:11:08;;;;;;;14.73;1.90;;;24.50;93.20;;;;;;4944088;29;20070;-69
2024/01/22 07:13:36;;;;;;;10.80;2.30;;;24.40;93.30;;;;;;4944014;28;20050;-71
2024/01/22 07:16:03;;;;;;;11.88;2.10;;;24.40;93.50;;;;;;4944142;29;20046;-71
2024/01/22 07:18:30;;;;;;;15.93;2.33;;;24.30;93.90;;;;;;4939815;29;20027;-70
2024/01/22 07:20:59;;;;;;;16.77;2.53;;;24.30;94.10;;;;;;4960301;28;20520;-71
2024/01/22 07:23:26;;;;;;;12.80;2.25;;;24.30;94.30;;;;;;4950535;28;20035;-71
2024/01/22 07:25:57;;;;;;;12.88;2.35;;;24.20;94.40;;;;;;4940858;28;20099;-70
2024/01/22 07:28:24;;;;;;;17.27;2.40;;;24.20;94.60;;;;;;4940808;28;20471;-71
2024/01/22 07:30:51;;;;;;;12.70;1.90;;;24.20;94.80;;;;;;4941739;28;20066;-70
2024/01/22 07:33:19;;;;;;;12.63;2.67;;;24.10;95.00;;;;;;4945046;28;20576;-71
2024/01/22 07:35:46;;;;;;;20.08;2.33;;;24.00;95.10;;;;;;4950864;28;20031;-71
2024/01/22 07:38:13;;;;;;;19.42;2.67;;;24.00;95.60;;;;;;4939522;28;20074;-71
2024/01/22 07:40:42;;;;;;;17.92;2.85;;;23.90;95.70;;;;;;4941084;29;20023;-71
2024/01/22 07:43:10;;;;;;;15.60;2.63;;;23.90;95.90;;;;;;4936571;29;20491;-71
2024/01/22 07:45:37;;;;;;;13.52;2.22;;;23.90;96.00;;;;;;4938089;29;20027;-70
2024/01/22 07:48:04;;;;;;;19.73;3.35;;;23.70;96.30;;;;;;4935604;29;20099;-70
2024/01/22 07:50:32;;;;;;;17.75;2.10;;;23.50;96.70;;;;;;4950511;29;20457;-71
2024/01/22 07:53:00;;;;;;;15.65;2.28;;;23.50;97.00;;;;;;4938959;29;20062;-71
2024/01/22 07:55:27;;;;;;;17.67;2.72;;;23.50;97.40;;;;;;4941156;28;20055;-71
2024/01/22 07:57:55;;;;;;;17.17;2.47;;;23.40;97.60;;;;;;4936308;29;20373;-71
2024/01/22 08:00:22;;;;;;;21.63;2.85;;;23.30;97.50;;;;;;4955694;28;20036;-71
2024/01/22 08:02:49;;;;;;;14.63;2.72;;;23.30;98.10;;;;;;4945399;29;20038;-71
2024/01/22 08:05:17;;;;;;;14.05;2.72;;;23.30;98.60;;;;;;4936786;29;20032;-72
2024/01/22 08:07:44;;;;;;;13.18;2.38;;;23.30;98.30;;;;;;4948274;28;20050;-71
2024/01/22 08:10:12;;;;;;;16.15;2.10;;;23.30;98.30;;;;;;4952601;28;20167;-71
2024/01/22 08:12:40;;;;;;;15.23;2.20;;;23.30;98.20;;;;;;4946995;28;20042;-70
2024/01/22 08:15:09;;;;;;;22.02;2.80;;;23.30;98.20;;;;;;4939568;29;20023;-71
2024/01/22 08:17:37;;;;;;;15.70;2.25;;;23.40;98.00;;;;;;4936232;29;20036;-70
2024/01/22 08:20:07;;;;;;;14.80;2.70;;;23.40;98.20;;;;;;4941283;29;20039;-70
2024/01/22 08:22:34;;;;;;;18.35;2.90;;;23.50;98.20;;;;;;4948421;28;20062;-71
2024/01/22 08:25:06;;;;;;;15.50;2.63;;;23.30;98.10;;;;;;4958146;28;20477;-71
2024/01/22 08:27:33;;;;;;;15.05;2.90;;;23.40;97.90;;;;;;4957836;28;20505;-70
2024/01/22 08:30:01;;;;;;;18.05;2.97;;;23.40;97.60;;;;;;4947429;28;20106;-71
2024/01/22 08:32:28;;;;;;;21.02;3.55;;;23.40;97.60;;;;;;4935702;29;20024;-69
2024/01/22 08:34:55;;;;;;;20.13;2.83;;;23.40;97.50;;;;;;4935829;29;20042;-72
2024/01/22 08:37:22;;;;;;;13.93;2.28;;;23.30;97.60;;;;;;4939824;29;20035;-71
2024/01/22 08:39:50;;;;;;;15.43;2.63;;;23.20;97.80;;;;;;4948593;29;20028;-71
2024/01/22 08:42:17;;;;;;;12.88;2.20;;;23.20;97.90;;;;;;4943191;28;20032;-71
2024/01/22 08:44:44;;;;;;;17.00;2.88;;;23.20;98.00;;;;;;4945286;28;20027;-71
2024/01/22 08:47:12;;;;;;;19.13;2.88;;;23.00;98.30;;;;;;4942524;28;20354;-71
2024/01/22 08:49:39;;;;;;;14.00;2.88;;;23.20;98.40;;;;;;4944545;28;20038;-70
2024/01/22 08:52:07;;;;;;;17.20;2.38;;;23.20;98.20;;;;;;4942131;28;20031;-71
2024/01/22 08:54:34;;;;;;;23.35;3.08;;;23.20;98.90;;;;;;4939127;28;20444;-71
2024/01/22 08:57:01;;;;;;;20.48;2.75;;;23.20;99.60;;;;;;4934128;28;20193;-71
2024/01/22 08:59:29;;;;;;;17.77;2.40;;;23.20;99.40;;;;;;4946417;28;20097;-70
2024/01/22 09:01:56;;;;;;;17.42;2.20;;;23.20;99.20;;;;;;4945356;28;20042;-71
2024/01/22 09:04:23;;;;;;;17.70;3.88;;;23.20;99.20;;;;;;4944487;28;20027;-70
2024/01/22 09:06:51;;;;;;;19.60;3.67;;;23.10;98.90;;;;;;4940323;29;20102;-70
2024/01/22 09:09:19;;;;;;;17.70;2.95;;;23.00;98.90;;;;;;4936655;28;20073;-70
2024/01/22 09:11:46;;;;;;;15.13;3.75;;;22.90;99.10;;;;;;4936949;28;20027;-70
2024/01/22 09:14:13;;;;;;;16.17;3.05;;;22.90;98.90;;;;;;4938637;29;20480;-71
2024/01/22 09:16:41;;;;;;;18.92;3.35;;;23.00;98.90;;;;;;4944462;28;20019;-70
2024/01/22 09:19:08;;;;;;;14.88;2.58;;;23.00;98.80;;;;;;4947749;29;20023;-70
2024/01/22 09:21:36;;;;;;;14.75;2.53;;;22.80;98.90;;;;;;4934889;29;20031;-72
2024/01/22 09:24:03;;;;;;;20.63;2.20;;;22.80;99.20;;;;;;4935024;29;20071;-71
2024/01/22 09:26:30;;;;;;;14.30;2.55;;;22.70;99.60;;;;;;4945769;28;20046;-70
2024/01/22 09:28:57;;;;;;;18.05;2.60;;;22.50;99.90;;;;;;4934591;29;20068;-71
2024/01/22 09:31:25;;;;;;;15.98;2.05;;;22.50;99.90;;;;;;4941178;29;20075;-71
2024/01/22 09:33:53;;;;;;;17.65;2.63;;;22.30;99.90;;;;;;4939544;29;20438;-70
2024/01/22 09:36:21;;;;;;;21.50;3.72;;;22.50;99.90;;;;;;4944824;28;20045;-69
2024/01/22 09:38:48;;;;;;;13.25;2.92;;;22.60;99.90;;;;;;4933869;29;20024;-70
2024/01/22 09:41:17;;;;;;;17.13;3.60;;;22.60;99.90;;;;;;4935606;29;20027;-70
2024/01/22 09:43:44;;;;;;;21.15;3.47;;;22.70;99.90;;;;;;4949653;28;20119;-70
2024/01/22 09:46:12;;;;;;;14.90;2.88;;;22.70;99.90;;;;;;4934497;29;20035;-73
2024/01/22 09:48:39;;;;;;;19.00;3.30;;;22.80;99.90;;;;;;4933965;29;20036;-69
2024/01/22 09:51:07;;;;;;;18.60;2.30;;;22.60;99.90;;;;;;4937610;29;20028;-70
2024/01/22 09:53:39;;;;;;;9.38;2.35;;;22.70;99.90;;;;;;4934021;29;20043;-69
2024/01/22 09:56:09;;;;;;;16.67;2.63;;;22.60;99.90;;;;;;4946234;28;20030;-69
2024/01/22 09:58:43;;;;;;;13.52;2.55;;;22.70;99.90;;;;;;4935624;29;20031;-70
2024/01/22 10:01:10;;;;;;;18.08;2.97;;;22.80;99.90;;;;;;4943915;28;20051;-70
2024/01/22 10:03:39;;;;;;;21.55;2.70;;;22.80;99.90;;;;;;4945253;29;20118;-70
2024/01/22 10:06:06;;;;;;;14.40;2.45;;;22.70;99.90;;;;;;4940017;28;20031;-70
2024/01/22 10:08:34;;;;;;;15.13;2.55;;;22.80;99.80;;;;;;4942989;28;20031;-71
2024/01/22 10:11:03;;;;;;;27.52;4.28;;;22.80;99.60;;;;;;4955542;28;20047;-70
2024/01/22 10:13:30;;;;;;;33.47;6.05;;;22.90;99.30;;;;;;4942911;28;20428;-70
2024/01/22 10:16:10;;;;;;;33.05;4.35;;;23.00;99.20;;;;;;4943836;29;20030;-70
2024/01/22 10:18:37;;;;;;;12.00;2.65;;;23.00;99.00;;;;;;4949609;29;20106;-70
2024/01/22 10:21:05;;;;;;;16.90;2.75;;;22.90;99.10;;;;;;4952936;28;20031;-70
2024/01/22 10:23:33;;;;;;;12.43;2.42;;;22.90;99.20;;;;;;4946804;28;20078;-70
2024/01/22 10:26:06;;;;;;;12.02;2.20;;;22.90;99.10;;;;;;4942291;28;20603;-70
2024/01/22 10:28:34;;;;;;;17.25;2.78;;;22.90;99.20;;;;;;4947339;29;20027;-70
2024/01/22 10:31:05;;;;;;;10.15;1.85;;;22.80;99.50;;;;;;4943790;29;20036;-71
2024/01/22 10:33:33;;;;;;;17.83;2.20;;;22.70;99.20;;;;;;4953444;28;20366;-71
2024/01/22 10:36:16;;;;;;;16.90;2.58;;;22.70;99.30;;;;;;4943328;28;20027;-70
2024/01/22 10:38:48;;;;;;;13.90;2.40;;;22.80;99.00;;;;;;4940543;28;20039;-70
2024/01/22 10:41:22;;;;;;;18.13;2.47;;;22.80;99.00;;;;;;4943759;29;20035;-71
2024/01/22 10:43:50;;;;;;;18.33;2.45;;;22.70;99.10;;;;;;4941501;29;20062;-70
2024/01/22 10:46:19;;;;;;;19.10;3.22;;;22.70;99.10;;;;;;4936944;29;20034;-71
2024/01/22 10:48:47;;;;;;;18.15;3.03;;;22.60;99.40;;;;;;4942880;28;20102;-71
2024/01/22 10:51:16;;;;;;;16.08;2.63;;;22.70;99.30;;;;;;4939013;29;20023;-71
2024/01/22 10:53:44;;;;;;;17.92;2.13;;;22.60;99.40;;;;;;4937977;29;20059;-71
2024/01/22 10:56:28;;;;;;;16.00;2.67;;;22.80;99.20;;;;;;4949908;28;20123;-69
2024/01/22 10:59:01;;;;;;;22.08;2.83;;;22.70;99.30;;;;;;4947493;29;20036;-71
2024/01/22 11:01:30;;;;;;;14.60;2.67;;;22.60;99.30;;;;;;4944590;29;20118;-70
2024/01/22 11:04:00;;;;;;;17.90;2.97;;;22.70;99.20;;;;;;4960595;28;20067;-71
2024/01/22 11:06:33;;;;;;;18.77;3.22;;;22.80;99.10;;;;;;4943267;28;20036;-70
2024/01/22 11:09:05;;;;;;;14.80;2.10;;;22.60;99.30;;;;;;4942328;29;20039;-70
2024/01/22 11:11:37;;;;;;;11.32;2.22;;;22.70;99.30;;;;;;4940548;29;20039;-70
2024/01/22 11:14:05;;;;;;;15.27;2.30;;;22.60;99.40;;;;;;4940968;28;20032;-71
2024/01/22 11:16:33;;;;;;;19.33;2.33;;;22.60;99.50;;;;;;4949067;28;20038;-71
2024/01/22 11:19:02;;;;;;;18.13;2.60;;;22.70;99.40;;;;;;4943069;28;20036;-71
2024/01/22 11:21:42;;;;;;;11.15;2.53;;;22.70;99.40;;;;;;4942220;29;20031;-70
2024/01/22 11:24:19;;;;;;;22.83;3.92;;;22.70;99.20;;;;;;4941683;29;20031;-70
2024/01/22 11:27:07;;;;;;;23.10;3.80;;;22.60;99.30;;;;;;4938013;28;20035;-70
2024/01/22 11:29:36;;;;;;;16.80;3.25;;;22.70;99.30;;;;;;4937114;28;20023;-70
2024/01/22 11:32:26;;;;;;;12.30;1.90;;;22.70;99.30;;;;;;4938505;28;20039;-70
2024/01/22 11:34:58;;;;;;;11.68;1.92;;;22.60;99.30;;;;;;4939772;28;20117;-71
2024/01/22 11:37:37;;;;;;;8.13;3.10;;;22.60;99.50;;;;;;4952504;28;20023;-70
2024/01/22 11:40:11;;;;;;;12.85;1.80;;;22.50;99.50;;;;;;4943003;29;20035;-70
2024/01/22 11:42:38;;;;;;;14.70;2.20;;;22.50;99.60;;;;;;4938924;29;20031;-71
2024/01/22 11:45:11;;;;;;;12.75;1.98;;;22.50;99.70;;;;;;4947422;29;20098;-71
2024/01/22 11:47:39;;;;;;;12.50;2.55;;;22.40;99.80;;;;;;4936144;29;20051;-71
2024/01/22 11:50:07;;;;;;;15.88;2.08;;;22.50;99.70;;;;;;4943996;29;20054;-71
2024/01/22 11:52:38;;;;;;;12.60;2.38;;;22.50;99.90;;;;;;4952206;28;20046;-71
2024/01/22 11:55:08;;;;;;;11.35;2.00;;;22.40;99.90;;;;;;4941678;28;20066;-71
2024/01/22 11:57:37;;;;;;;15.73;2.78;;;22.30;99.90;;;;;;4935874;29;20026;-71
2024/01/22 12:00:05;;;;;;;18.30;2.80;;;22.30;99.90;;;;;;4947689;29;20034;-72
2024/01/22 12:02:33;;;;;;;8.15;1.98;;;22.40;99.90;;;;;;4945041;28;20123;-71
2024/01/22 12:05:12;;;;;;;17.27;2.22;;;22.30;99.90;;;;;;4943332;29;20062;-71
2024/01/22 12:07:47;;;;;;;17.27;2.47;;;22.20;99.90;;;;;;4937514;29;20043;-70
2024/01/22 12:10:25;;;;;;;15.20;2.92;;;22.30;99.90;;;;;;4947043;28;20028;-68
2024/01/22 12:13:13;;;;;;;13.45;2.55;;;22.20;99.90;;;;;;4941406;29;20127;-70
2024/01/22 12:15:40;;;;;;;13.88;2.40;;;22.10;99.90;;;;;;4940254;29;20814;-70
2024/01/22 12:18:07;;;;;;;10.38;2.67;;;22.10;99.90;;;;;;4957116;28;20034;-70
2024/01/22 12:20:35;;;;;;;14.98;2.47;;;22.30;99.90;;;;;;4946455;29;20031;-70
2024/01/22 12:23:04;;;;;;;18.73;2.22;;;22.30;99.90;;;;;;4948961;28;20039;-70
2024/01/22 12:25:40;;;;;;;12.40;1.55;;;22.30;99.90;;;;;;4937730;28;20024;-72
2024/01/22 12:28:12;;;;;;;8.45;1.85;;;22.20;99.90;;;;;;4940036;28;20031;-70
2024/01/22 12:30:41;;;;;;;17.08;2.00;;;22.20;99.90;;;;;;4942178;29;20083;-70
2024/01/22 12:33:26;;;;;;;12.57;2.15;;;22.30;99.90;;;;;;4940112;29;20031;-71
2024/01/22 12:36:10;;;;;;;15.10;2.50;;;22.10;99.90;;;;;;4943917;28;20024;-68
2024/01/22 12:38:49;;;;;;;15.55;2.40;;;22.20;99.90;;;;;;4944746;29;20478;-70
2024/01/22 12:41:18;;;;;;;13.30;2.17;;;22.10;99.90;;;;;;4944207;29;20114;-70
2024/01/22 12:43:46;;;;;;;13.10;2.15;;;22.30;99.90;;;;;;4933818;29;20481;-69